createdAt,value
2023-02-14T00:03:52.769Z,1.3
2023-02-14T00:13:53.152Z,1.3
2023-02-14T00:53:55.449Z,1
2023-02-14T01:03:56.275Z,0.8
2023-02-14T01:13:56.788Z,0.7
2023-02-14T01:23:57.143Z,0.5
2023-02-14T01:33:57.404Z,0.5
2023-02-14T01:53:59.272Z,0.6
2023-02-14T02:14:01.011Z,0.2
2023-02-14T02:34:02.106Z,-0.1
2023-02-14T02:54:04.031Z,-0.3
2023-02-14T03:24:06.993Z,-0.6
2023-02-14T03:34:07.526Z,-0.6
2023-02-14T03:44:08.223Z,-0.6
2023-02-14T04:04:08.966Z,-0.7
2023-02-14T04:14:09.783Z,-0.6
2023-02-14T04:24:10.898Z,-0.6
2023-02-14T04:54:12.501Z,-0.7
2023-02-14T05:14:13.430Z,-1
2023-02-14T05:34:14.325Z,-1
2023-02-14T05:44:14.786Z,-1
2023-02-14T05:54:15.182Z,-1
2023-02-14T06:14:15.482Z,-1.1
2023-02-14T06:34:16.422Z,-1.2
2023-02-14T07:24:20.667Z,-0.8
2023-02-14T07:34:21.578Z,-0.6
2023-02-14T07:44:22.471Z,-0.3
2023-02-14T08:24:23.717Z,2.9
2023-02-14T08:34:23.920Z,3.4
2023-02-14T09:34:27.455Z,6.4
2023-02-14T09:44:28.074Z,7.4
2023-02-14T09:54:28.617Z,8.2
2023-02-14T10:44:31.781Z,10.2
2023-02-14T11:04:33.070Z,10.9
2023-02-14T11:14:33.668Z,11.4
2023-02-14T11:54:36.049Z,12.6
2023-02-14T12:04:44.851Z,12.6
2023-02-14T12:14:37.907Z,13.3
2023-02-14T12:24:38.906Z,13.4
2023-02-14T13:04:41.906Z,13.8
2023-02-14T13:14:42.790Z,13.9
2023-02-14T14:24:45.425Z,14.3
2023-02-14T15:04:47.962Z,13.6
2023-02-14T15:14:48.159Z,13.8
2023-02-14T15:24:48.305Z,14.2
2023-02-14T15:34:49.025Z,13.9
2023-02-14T15:54:50.504Z,13.6
2023-02-14T16:24:53.263Z,11.6
2023-02-14T16:44:53.879Z,10.5
2023-02-14T17:44:59.098Z,6.7
2023-02-14T17:54:59.813Z,6.6
2023-02-14T18:05:00.633Z,6.4
2023-02-14T18:15:01.151Z,6.2
2023-02-14T18:45:03.132Z,5.2
2023-02-14T18:55:04.198Z,4.8
2023-02-14T19:15:05.046Z,4.2
2023-02-14T19:25:05.543Z,3.9
2023-02-14T19:35:05.673Z,3.8
2023-02-14T19:55:07.128Z,3.4
2023-02-14T20:35:09.668Z,2.7
2023-02-14T20:55:10.891Z,2.5
2023-02-14T21:45:13.745Z,2
2023-02-14T22:05:14.532Z,1.6
2023-02-14T22:25:16.089Z,1.4
2023-02-14T22:45:17.041Z,1.2
2023-02-14T22:55:17.905Z,1
2023-02-14T23:15:18.251Z,0.7
2023-02-14T23:25:18.692Z,0.7
2023-02-14T23:35:19.228Z,0.6
2023-02-14T23:45:20.293Z,0.7
